sensor_id;sensor_type;location;lat;lon;timestamp;pressure;altitude;pressure_sealevel;temperature;humidity
79791;BME280;69278;52.220;5.172;2023-10-19T00:01:26;99340.25;;;11.37;90.39
79791;BME280;69278;52.220;5.172;2023-10-19T00:03:55;99337.25;;;11.40;89.87
79791;BME280;69278;52.220;5.172;2023-10-19T00:06:25;99327.34;;;11.42;90.26
79791;BME280;69278;52.220;5.172;2023-10-19T00:08:52;99334.91;;;11.45;90.16
79791;BME280;69278;52.220;5.172;2023-10-19T00:11:19;99313.00;;;11.44;89.89
79791;BME280;69278;52.220;5.172;2023-10-19T00:13:50;99289.19;;;11.38;89.87
79791;BME280;69278;52.220;5.172;2023-10-19T00:16:17;99317.28;;;11.45;90.19
79791;BME280;69278;52.220;5.172;2023-10-19T00:18:44;99302.44;;;11.44;90.40
79791;BME280;69278;52.220;5.172;2023-10-19T00:21:11;99304.91;;;11.46;90.42
79791;BME280;69278;52.220;5.172;2023-10-19T00:23:58;99297.28;;;11.51;90.12
79791;BME280;69278;52.220;5.172;2023-10-19T00:26:29;99301.56;;;11.52;90.45
79791;BME280;69278;52.220;5.172;2023-10-19T00:28:56;99303.03;;;11.54;90.79
79791;BME280;69278;52.220;5.172;2023-10-19T00:31:24;99299.56;;;11.54;90.92
79791;BME280;69278;52.220;5.172;2023-10-19T00:33:53;99297.41;;;11.57;91.00
79791;BME280;69278;52.220;5.172;2023-10-19T00:36:24;99295.56;;;11.58;90.52
79791;BME280;69278;52.220;5.172;2023-10-19T00:38:52;99299.66;;;11.60;90.87
79791;BME280;69278;52.220;5.172;2023-10-19T00:41:24;99303.94;;;11.61;90.76
79791;BME280;69278;52.220;5.172;2023-10-19T00:43:59;99305.41;;;11.64;90.88
79791;BME280;69278;52.220;5.172;2023-10-19T00:46:38;99297.47;;;11.64;90.96
79791;BME280;69278;52.220;5.172;2023-10-19T00:49:09;99292.84;;;11.66;90.84
79791;BME280;69278;52.220;5.172;2023-10-19T00:51:40;99276.66;;;11.54;91.17
79791;BME280;69278;52.220;5.172;2023-10-19T00:54:32;99287.88;;;11.71;91.13
79791;BME280;69278;52.220;5.172;2023-10-19T00:57:03;99279.78;;;11.72;90.81
79791;BME280;69278;52.220;5.172;2023-10-19T00:59:41;99281.06;;;11.76;90.82
79791;BME280;69278;52.220;5.172;2023-10-19T01:02:16;99275.78;;;11.76;91.51
79791;BME280;69278;52.220;5.172;2023-10-19T01:04:45;99280.53;;;11.81;91.34
79791;BME280;69278;52.220;5.172;2023-10-19T01:07:17;99275.06;;;11.82;91.55
79791;BME280;69278;52.220;5.172;2023-10-19T01:09:57;99278.50;;;11.83;91.36
79791;BME280;69278;52.220;5.172;2023-10-19T01:12:26;99282.25;;;11.88;92.30
79791;BME280;69278;52.220;5.172;2023-10-19T01:15:13;99279.25;;;11.91;92.32
79791;BME280;69278;52.220;5.172;2023-10-19T01:17:44;99280.72;;;11.94;91.87
79791;BME280;69278;52.220;5.172;2023-10-19T01:20:17;99271.78;;;11.95;92.19
79791;BME280;69278;52.220;5.172;2023-10-19T01:22:49;99276.50;;;11.99;92.38
79791;BME280;69278;52.220;5.172;2023-10-19T01:25:20;99268.41;;;12.01;92.26
79791;BME280;69278;52.220;5.172;2023-10-19T01:28:06;99274.97;;;12.05;92.25
79791;BME280;69278;52.220;5.172;2023-10-19T01:30:38;99269.47;;;12.07;92.61
79791;BME280;69278;52.220;5.172;2023-10-19T01:33:05;99262.19;;;12.09;92.85
79791;BME280;69278;52.220;5.172;2023-10-19T01:35:40;99271.56;;;12.11;93.09
79791;BME280;69278;52.220;5.172;2023-10-19T01:38:25;99266.75;;;12.15;93.36
79791;BME280;69278;52.220;5.172;2023-10-19T01:40:51;99263.75;;;12.18;92.79
79791;BME280;69278;52.220;5.172;2023-10-19T01:43:20;99261.53;;;12.21;93.54
79791;BME280;69278;52.220;5.172;2023-10-19T01:46:07;99256.91;;;12.23;93.49
79791;BME280;69278;52.220;5.172;2023-10-19T01:48:43;99247.72;;;12.19;93.57
79791;BME280;69278;52.220;5.172;2023-10-19T01:51:11;99246.72;;;12.20;93.30
79791;BME280;69278;52.220;5.172;2023-10-19T01:53:39;99249.91;;;12.30;93.68
79791;BME280;69278;52.220;5.172;2023-10-19T01:56:06;99251.50;;;12.31;93.61
79791;BME280;69278;52.220;5.172;2023-10-19T01:58:40;99246.69;;;12.35;93.58
79791;BME280;69278;52.220;5.172;2023-10-19T02:01:08;99247.31;;;12.37;94.43
79791;BME280;69278;52.220;5.172;2023-10-19T02:03:41;99248.56;;;12.41;94.17
79791;BME280;69278;52.220;5.172;2023-10-19T02:06:13;99253.50;;;12.44;93.98
79791;BME280;69278;52.220;5.172;2023-10-19T02:08:52;99245.19;;;12.47;94.24
79791;BME280;69278;52.220;5.172;2023-10-19T02:11:23;99251.94;;;12.49;94.42
79791;BME280;69278;52.220;5.172;2023-10-19T02:13:53;99233.63;;;12.48;94.38
79791;BME280;69278;52.220;5.172;2023-10-19T02:16:21;99248.53;;;12.55;94.41
79791;BME280;69278;52.220;5.172;2023-10-19T02:18:51;99241.22;;;12.57;95.13
79791;BME280;69278;52.220;5.172;2023-10-19T02:21:19;99244.75;;;12.64;95.27
79791;BME280;69278;52.220;5.172;2023-10-19T02:23:49;99240.91;;;12.67;95.61
79791;BME280;69278;52.220;5.172;2023-10-19T02:26:22;99218.03;;;12.53;95.92
79791;BME280;69278;52.220;5.172;2023-10-19T02:28:54;99250.38;;;12.76;95.21
79791;BME280;69278;52.220;5.172;2023-10-19T02:31:23;99211.81;;;12.60;95.39
79791;BME280;69278;52.220;5.172;2023-10-19T02:33:52;99247.34;;;12.79;96.37
79791;BME280;69278;52.220;5.172;2023-10-19T02:36:28;99242.13;;;12.86;96.19
79791;BME280;69278;52.220;5.172;2023-10-19T02:38:56;99234.81;;;12.88;95.98
79791;BME280;69278;52.220;5.172;2023-10-19T02:41:26;99228.16;;;12.92;95.35
79791;BME280;69278;52.220;5.172;2023-10-19T02:43:53;99235.69;;;12.95;95.99
79791;BME280;69278;52.220;5.172;2023-10-19T02:46:36;99233.31;;;13.00;96.25
79791;BME280;69278;52.220;5.172;2023-10-19T02:49:11;99227.44;;;13.04;96.61
79791;BME280;69278;52.220;5.172;2023-10-19T02:51:39;99230.75;;;13.06;97.32
79791;BME280;69278;52.220;5.172;2023-10-19T02:54:07;99229.34;;;13.10;97.49
79791;BME280;69278;52.220;5.172;2023-10-19T02:56:35;99218.97;;;13.09;97.56
79791;BME280;69278;52.220;5.172;2023-10-19T02:59:02;99202.41;;;13.00;97.62
79791;BME280;69278;52.220;5.172;2023-10-19T03:01:32;99196.09;;;13.01;97.22
79791;BME280;69278;52.220;5.172;2023-10-19T03:04:02;99222.09;;;13.19;97.31
79791;BME280;69278;52.220;5.172;2023-10-19T03:06:30;99216.81;;;13.19;97.29
79791;BME280;69278;52.220;5.172;2023-10-19T03:09:04;99216.44;;;13.22;97.54
79791;BME280;69278;52.220;5.172;2023-10-19T03:11:31;99201.31;;;13.16;97.60
79791;BME280;69278;52.220;5.172;2023-10-19T03:13:58;99205.00;;;13.15;97.77
79791;BME280;69278;52.220;5.172;2023-10-19T03:16:25;99221.31;;;13.25;97.77
79791;BME280;69278;52.220;5.172;2023-10-19T03:18:56;99202.16;;;13.16;97.71
79791;BME280;69278;52.220;5.172;2023-10-19T03:21:23;99221.75;;;13.28;97.50
79791;BME280;69278;52.220;5.172;2023-10-19T03:23:55;99214.66;;;13.29;97.84
79791;BME280;69278;52.220;5.172;2023-10-19T03:26:25;99204.69;;;13.31;97.58
79791;BME280;69278;52.220;5.172;2023-10-19T03:29:03;99195.28;;;13.22;97.89
79791;BME280;69278;52.220;5.172;2023-10-19T03:31:34;99212.03;;;13.36;97.59
79791;BME280;69278;52.220;5.172;2023-10-19T03:34:10;99209.41;;;13.36;97.55
79791;BME280;69278;52.220;5.172;2023-10-19T03:36:39;99211.84;;;13.37;97.73
79791;BME280;69278;52.220;5.172;2023-10-19T03:39:06;99210.84;;;13.38;98.03
79791;BME280;69278;52.220;5.172;2023-10-19T03:41:40;99205.34;;;13.40;97.87
79791;BME280;69278;52.220;5.172;2023-10-19T03:44:11;99205.16;;;13.41;97.88
79791;BME280;69278;52.220;5.172;2023-10-19T03:47:00;99200.72;;;13.42;97.84
79791;BME280;69278;52.220;5.172;2023-10-19T03:49:38;99202.31;;;13.43;97.70
79791;BME280;69278;52.220;5.172;2023-10-19T03:52:06;99200.28;;;13.45;98.25
79791;BME280;69278;52.220;5.172;2023-10-19T03:54:37;99194.22;;;13.44;97.82
79791;BME280;69278;52.220;5.172;2023-10-19T03:57:11;99193.63;;;13.49;98.37
79791;BME280;69278;52.220;5.172;2023-10-19T03:59:39;99191.59;;;13.51;98.20
79791;BME280;69278;52.220;5.172;2023-10-19T04:02:06;99187.91;;;13.52;98.26
79791;BME280;69278;52.220;5.172;2023-10-19T04:04:40;99155.91;;;13.34;98.26
79791;BME280;69278;52.220;5.172;2023-10-19T04:07:10;99189.78;;;13.51;98.39
79791;BME280;69278;52.220;5.172;2023-10-19T04:09:42;99182.00;;;13.50;97.87
79791;BME280;69278;52.220;5.172;2023-10-19T04:12:38;99195.69;;;13.53;98.04
79791;BME280;69278;52.220;5.172;2023-10-19T04:15:06;99137.91;;;13.22;98.29
79791;BME280;69278;52.220;5.172;2023-10-19T04:17:38;99186.47;;;13.49;97.79
79791;BME280;69278;52.220;5.172;2023-10-19T04:20:07;99185.47;;;13.50;97.90
79791;BME280;69278;52.220;5.172;2023-10-19T04:22:49;99183.22;;;13.47;98.12
79791;BME280;69278;52.220;5.172;2023-10-19T04:25:18;99186.06;;;13.46;97.98
79791;BME280;69278;52.220;5.172;2023-10-19T04:27:54;99196.22;;;13.42;97.65
79791;BME280;69278;52.220;5.172;2023-10-19T04:30:23;99184.41;;;13.38;97.73
79791;BME280;69278;52.220;5.172;2023-10-19T04:32:50;99184.38;;;13.32;97.97
79791;BME280;69278;52.220;5.172;2023-10-19T04:35:17;99195.59;;;13.40;97.94
79791;BME280;69278;52.220;5.172;2023-10-19T04:37:51;99196.63;;;13.39;97.73
79791;BME280;69278;52.220;5.172;2023-10-19T04:40:19;99177.63;;;13.29;97.88
79791;BME280;69278;52.220;5.172;2023-10-19T04:42:47;99177.03;;;13.27;97.91
79791;BME280;69278;52.220;5.172;2023-10-19T04:45:14;99187.63;;;13.34;97.66
79791;BME280;69278;52.220;5.172;2023-10-19T04:47:41;99193.75;;;13.34;97.65
79791;BME280;69278;52.220;5.172;2023-10-19T04:50:08;99187.63;;;13.34;97.29
79791;BME280;69278;52.220;5.172;2023-10-19T04:52:39;99197.38;;;13.33;97.53
79791;BME280;69278;52.220;5.172;2023-10-19T04:55:06;99197.75;;;13.30;97.53
79791;BME280;69278;52.220;5.172;2023-10-19T04:57:32;99186.41;;;13.29;97.65
79791;BME280;69278;52.220;5.172;2023-10-19T04:59:59;99199.03;;;13.34;97.49
79791;BME280;69278;52.220;5.172;2023-10-19T05:02:26;99192.09;;;13.33;97.63
79791;BME280;69278;52.220;5.172;2023-10-19T05:04:53;99195.97;;;13.37;97.83
79791;BME280;69278;52.220;5.172;2023-10-19T05:07:20;99195.59;;;13.40;97.59
79791;BME280;69278;52.220;5.172;2023-10-19T05:09:46;99189.44;;;13.33;97.88
79791;BME280;69278;52.220;5.172;2023-10-19T05:12:14;99166.81;;;13.24;97.85
79791;BME280;69278;52.220;5.172;2023-10-19T05:14:42;99199.50;;;13.44;97.52
79791;BME280;69278;52.220;5.172;2023-10-19T05:17:09;99205.41;;;13.46;97.79
79791;BME280;69278;52.220;5.172;2023-10-19T05:19:37;99208.06;;;13.46;97.69
79791;BME280;69278;52.220;5.172;2023-10-19T05:22:06;99202.75;;;13.46;97.50
79791;BME280;69278;52.220;5.172;2023-10-19T05:24:33;99209.28;;;13.50;97.49
79791;BME280;69278;52.220;5.172;2023-10-19T05:27:01;99206.25;;;13.53;97.79
79791;BME280;69278;52.220;5.172;2023-10-19T05:29:27;99209.91;;;13.52;97.82
79791;BME280;69278;52.220;5.172;2023-10-19T05:31:54;99213.00;;;13.56;97.37
79791;BME280;69278;52.220;5.172;2023-10-19T05:34:21;99217.06;;;13.58;97.42
79791;BME280;69278;52.220;5.172;2023-10-19T05:36:48;99225.63;;;13.60;97.80
79791;BME280;69278;52.220;5.172;2023-10-19T05:39:18;99219.94;;;13.63;97.84
79791;BME280;69278;52.220;5.172;2023-10-19T05:41:44;99217.09;;;13.65;97.86
79791;BME280;69278;52.220;5.172;2023-10-19T05:44:11;99218.75;;;13.66;97.98
79791;BME280;69278;52.220;5.172;2023-10-19T05:46:37;99224.44;;;13.69;97.59
79791;BME280;69278;52.220;5.172;2023-10-19T05:49:04;99223.44;;;13.70;97.59
79791;BME280;69278;52.220;5.172;2023-10-19T05:51:32;99227.91;;;13.70;97.63
79791;BME280;69278;52.220;5.172;2023-10-19T05:53:59;99235.66;;;13.71;97.77
79791;BME280;69278;52.220;5.172;2023-10-19T05:56:29;99245.03;;;13.74;97.52
79791;BME280;69278;52.220;5.172;2023-10-19T05:59:00;99240.56;;;13.74;97.62
79791;BME280;69278;52.220;5.172;2023-10-19T06:01:28;99233.81;;;13.72;97.44
79791;BME280;69278;52.220;5.172;2023-10-19T06:03:55;99245.25;;;13.79;97.61
79791;BME280;69278;52.220;5.172;2023-10-19T06:06:22;99249.53;;;13.80;97.71
79791;BME280;69278;52.220;5.172;2023-10-19T06:08:49;99240.56;;;13.81;97.67
79791;BME280;69278;52.220;5.172;2023-10-19T06:11:21;99236.34;;;13.86;96.55
79791;BME280;69278;52.220;5.172;2023-10-19T06:13:47;99232.47;;;13.89;97.03
79791;BME280;69278;52.220;5.172;2023-10-19T06:16:14;99228.41;;;13.86;97.13
79791;BME280;69278;52.220;5.172;2023-10-19T06:18:41;99237.78;;;13.89;96.91
79791;BME280;69278;52.220;5.172;2023-10-19T06:21:10;99236.94;;;13.88;96.93
79791;BME280;69278;52.220;5.172;2023-10-19T06:23:36;99244.88;;;13.88;97.05
79791;BME280;69278;52.220;5.172;2023-10-19T06:26:12;99230.63;;;13.83;97.12
79791;BME280;69278;52.220;5.172;2023-10-19T06:28:39;99232.69;;;13.87;97.25
79791;BME280;69278;52.220;5.172;2023-10-19T06:31:08;99242.88;;;13.90;97.14
79791;BME280;69278;52.220;5.172;2023-10-19T06:33:35;99215.31;;;13.78;94.70
79791;BME280;69278;52.220;5.172;2023-10-19T06:36:03;99245.22;;;14.13;94.10
79791;BME280;69278;52.220;5.172;2023-10-19T06:38:30;99245.28;;;14.26;93.33
79791;BME280;69278;52.220;5.172;2023-10-19T06:40:59;99250.00;;;14.37;92.71
79791;BME280;69278;52.220;5.172;2023-10-19T06:43:26;99236.56;;;14.39;92.56
79791;BME280;69278;52.220;5.172;2023-10-19T06:45:57;99228.00;;;14.37;91.90
79791;BME280;69278;52.220;5.172;2023-10-19T06:48:24;99232.13;;;14.52;90.83
79791;BME280;69278;52.220;5.172;2023-10-19T06:50:51;99238.88;;;14.61;89.77
79791;BME280;69278;52.220;5.172;2023-10-19T06:53:18;99259.06;;;14.69;89.21
79791;BME280;69278;52.220;5.172;2023-10-19T06:55:44;99259.06;;;14.69;89.08
79791;BME280;69278;52.220;5.172;2023-10-19T06:58:11;99274.56;;;14.79;88.84
79791;BME280;69278;52.220;5.172;2023-10-19T07:00:38;99243.97;;;14.70;88.35
79791;BME280;69278;52.220;5.172;2023-10-19T07:03:13;99274.16;;;14.88;87.70
79791;BME280;69278;52.220;5.172;2023-10-19T07:05:39;99283.34;;;14.92;87.43
79791;BME280;69278;52.220;5.172;2023-10-19T07:08:06;99281.13;;;14.96;86.91
79791;BME280;69278;52.220;5.172;2023-10-19T07:10:34;99277.66;;;14.95;87.69
79791;BME280;69278;52.220;5.172;2023-10-19T07:13:01;99251.72;;;14.78;88.74
79791;BME280;69278;52.220;5.172;2023-10-19T07:15:28;99273.13;;;14.76;89.53
79791;BME280;69278;52.220;5.172;2023-10-19T07:17:57;99283.31;;;14.73;90.36
79791;BME280;69278;52.220;5.172;2023-10-19T07:20:24;99292.06;;;14.67;91.30
79791;BME280;69278;52.220;5.172;2023-10-19T07:23:05;99273.25;;;14.48;91.02
79791;BME280;69278;52.220;5.172;2023-10-19T07:25:53;99283.91;;;14.55;91.86
79791;BME280;69278;52.220;5.172;2023-10-19T07:28:23;99291.22;;;14.53;92.88
79791;BME280;69278;52.220;5.172;2023-10-19T07:30:53;99292.44;;;14.50;92.64
79791;BME280;69278;52.220;5.172;2023-10-19T07:33:20;99287.75;;;14.46;93.07
79791;BME280;69278;52.220;5.172;2023-10-19T07:35:49;99297.31;;;14.47;92.56
79791;BME280;69278;52.220;5.172;2023-10-19T07:38:23;99300.16;;;14.45;93.32
79791;BME280;69278;52.220;5.172;2023-10-19T07:40:51;99295.47;;;14.41;94.25
79791;BME280;69278;52.220;5.172;2023-10-19T07:43:21;99300.34;;;14.44;93.63
79791;BME280;69278;52.220;5.172;2023-10-19T07:45:48;99302.81;;;14.45;93.94
79791;BME280;69278;52.220;5.172;2023-10-19T07:48:15;99304.44;;;14.46;93.89
79791;BME280;69278;52.220;5.172;2023-10-19T07:50:43;99288.91;;;14.37;94.12
79791;BME280;69278;52.220;5.172;2023-10-19T07:53:10;99296.25;;;14.41;94.11
79791;BME280;69278;52.220;5.172;2023-10-19T07:55:36;99304.25;;;14.48;94.59
79791;BME280;69278;52.220;5.172;2023-10-19T07:58:05;99291.19;;;14.40;94.54
79791;BME280;69278;52.220;5.172;2023-10-19T08:00:35;99301.00;;;14.46;93.81
79791;BME280;69278;52.220;5.172;2023-10-19T08:03:03;99295.69;;;14.46;94.54
79791;BME280;69278;52.220;5.172;2023-10-19T08:05:31;99292.63;;;14.49;94.41
79791;BME280;69278;52.220;5.172;2023-10-19T08:07:58;99296.31;;;14.54;94.65
79791;BME280;69278;52.220;5.172;2023-10-19T08:10:26;99283.25;;;14.46;94.92
79791;BME280;69278;52.220;5.172;2023-10-19T08:12:53;99279.81;;;14.46;94.72
79791;BME280;69278;52.220;5.172;2023-10-19T08:15:21;99287.16;;;14.50;94.46
79791;BME280;69278;52.220;5.172;2023-10-19T08:17:50;99294.88;;;14.58;94.80
79791;BME280;69278;52.220;5.172;2023-10-19T08:20:17;99297.38;;;14.60;94.96
79791;BME280;69278;52.220;5.172;2023-10-19T08:23:04;99302.44;;;14.61;94.98
79791;BME280;69278;52.220;5.172;2023-10-19T08:25:32;99288.81;;;14.65;94.88
79791;BME280;69278;52.220;5.172;2023-10-19T08:28:17;99297.38;;;14.67;94.88
79791;BME280;69278;52.220;5.172;2023-10-19T08:30:44;99296.75;;;14.65;95.06
79791;BME280;69278;52.220;5.172;2023-10-19T08:33:24;99309.19;;;14.71;94.96
79791;BME280;69278;52.220;5.172;2023-10-19T08:35:56;99306.34;;;14.72;95.33
79791;BME280;69278;52.220;5.172;2023-10-19T08:38:23;99302.69;;;14.73;95.29
79791;BME280;69278;52.220;5.172;2023-10-19T08:40:53;99282.91;;;14.69;94.96
79791;BME280;69278;52.220;5.172;2023-10-19T08:43:20;99288.81;;;14.78;94.91
79791;BME280;69278;52.220;5.172;2023-10-19T08:45:47;99292.13;;;14.80;95.05
79791;BME280;69278;52.220;5.172;2023-10-19T08:48:15;99275.34;;;14.73;94.81
79791;BME280;69278;52.220;5.172;2023-10-19T08:50:42;99288.06;;;15.03;93.24
79791;BME280;69278;52.220;5.172;2023-10-19T08:53:10;99283.78;;;15.35;92.21
79791;BME280;69278;52.220;5.172;2023-10-19T08:55:36;99278.69;;;15.60;91.50
79791;BME280;69278;52.220;5.172;2023-10-19T08:58:16;99274.94;;;15.87;90.09
79791;BME280;69278;52.220;5.172;2023-10-19T09:00:49;99272.47;;;16.05;88.64
79791;BME280;69278;52.220;5.172;2023-10-19T09:03:20;99258.56;;;16.10;88.93
79791;BME280;69278;52.220;5.172;2023-10-19T09:05:48;99274.47;;;16.10;89.17
79791;BME280;69278;52.220;5.172;2023-10-19T09:08:16;99276.53;;;16.01;89.90
79791;BME280;69278;52.220;5.172;2023-10-19T09:10:44;99263.72;;;15.85;90.09
79791;BME280;69278;52.220;5.172;2023-10-19T09:13:15;99268.81;;;15.86;90.63
79791;BME280;69278;52.220;5.172;2023-10-19T09:15:47;99272.50;;;15.85;90.90
79791;BME280;69278;52.220;5.172;2023-10-19T09:20:45;99264.38;;;15.74;91.62
79791;BME280;69278;52.220;5.172;2023-10-19T09:23:30;99270.91;;;15.78;91.86
79791;BME280;69278;52.220;5.172;2023-10-19T09:25:59;99274.56;;;15.77;92.00
79791;BME280;69278;52.220;5.172;2023-10-19T09:28:29;99268.25;;;15.78;92.15
79791;BME280;69278;52.220;5.172;2023-10-19T09:30:56;99262.53;;;15.81;92.36
79791;BME280;69278;52.220;5.172;2023-10-19T09:33:24;99268.03;;;15.86;92.81
79791;BME280;69278;52.220;5.172;2023-10-19T09:35:51;99257.19;;;15.87;92.30
79791;BME280;69278;52.220;5.172;2023-10-19T09:38:22;99273.28;;;15.99;92.60
79791;BME280;69278;52.220;5.172;2023-10-19T09:40:50;99262.25;;;16.02;93.03
79791;BME280;69278;52.220;5.172;2023-10-19T09:43:22;99223.50;;;15.88;92.83
79791;BME280;69278;52.220;5.172;2023-10-19T09:45:53;99261.78;;;16.18;92.65
79791;BME280;69278;52.220;5.172;2023-10-19T09:48:23;99263.97;;;16.28;91.68
79791;BME280;69278;52.220;5.172;2023-10-19T09:50:53;99243.13;;;16.31;90.77
79791;BME280;69278;52.220;5.172;2023-10-19T09:53:26;99207.03;;;16.17;90.29
79791;BME280;69278;52.220;5.172;2023-10-19T09:55:58;99253.47;;;16.52;90.23
79791;BME280;69278;52.220;5.172;2023-10-19T09:58:28;99249.19;;;16.51;91.00
79791;BME280;69278;52.220;5.172;2023-10-19T10:00:57;99236.72;;;16.45;91.12
79791;BME280;69278;52.220;5.172;2023-10-19T10:06:13;99244.25;;;16.48;91.45
79791;BME280;69278;52.220;5.172;2023-10-19T10:08:42;99244.25;;;16.48;91.24
79791;BME280;69278;52.220;5.172;2023-10-19T10:11:20;99240.84;;;16.41;91.53
79791;BME280;69278;52.220;5.172;2023-10-19T10:13:48;99251.41;;;16.48;91.64
79791;BME280;69278;52.220;5.172;2023-10-19T10:16:23;99240.56;;;16.49;91.50
79791;BME280;69278;52.220;5.172;2023-10-19T10:19:02;99233.03;;;16.46;91.35
79791;BME280;69278;52.220;5.172;2023-10-19T10:21:33;99244.50;;;16.47;91.51
79791;BME280;69278;52.220;5.172;2023-10-19T10:24:03;99244.88;;;16.50;91.58
79791;BME280;69278;52.220;5.172;2023-10-19T10:26:31;99232.03;;;16.41;91.56
79791;BME280;69278;52.220;5.172;2023-10-19T10:29:23;99254.47;;;16.58;91.51
79791;BME280;69278;52.220;5.172;2023-10-19T10:31:50;99231.19;;;16.53;91.44
79791;BME280;69278;52.220;5.172;2023-10-19T10:37:02;99236.22;;;16.68;89.71
79791;BME280;69278;52.220;5.172;2023-10-19T10:39:30;99226.53;;;16.74;89.59
79791;BME280;69278;52.220;5.172;2023-10-19T10:42:01;99229.59;;;16.77;89.27
79791;BME280;69278;52.220;5.172;2023-10-19T10:44:55;99235.31;;;16.81;88.46
79791;BME280;69278;52.220;5.172;2023-10-19T10:47:22;99236.94;;;16.82;88.30
79791;BME280;69278;52.220;5.172;2023-10-19T10:49:56;99240.41;;;16.82;88.29
79791;BME280;69278;52.220;5.172;2023-10-19T10:54:50;99230.59;;;16.83;88.29
79791;BME280;69278;52.220;5.172;2023-10-19T10:57:17;99220.59;;;16.78;87.85
79791;BME280;69278;52.220;5.172;2023-10-19T10:59:44;99226.47;;;16.87;87.89
79791;BME280;69278;52.220;5.172;2023-10-19T11:02:18;99205.34;;;16.92;87.40
79791;BME280;69278;52.220;5.172;2023-10-19T11:04:45;99209.81;;;16.98;87.97
79791;BME280;69278;52.220;5.172;2023-10-19T11:07:18;99187.75;;;16.91;87.95
79791;BME280;69278;52.220;5.172;2023-10-19T11:09:46;99210.56;;;17.05;87.67
79791;BME280;69278;52.220;5.172;2023-10-19T11:12:13;99202.38;;;17.06;87.39
79791;BME280;69278;52.220;5.172;2023-10-19T11:14:55;99210.44;;;17.18;87.22
79791;BME280;69278;52.220;5.172;2023-10-19T11:17:22;99204.47;;;17.22;87.55
79791;BME280;69278;52.220;5.172;2023-10-19T11:19:57;99200.13;;;17.28;87.40
79791;BME280;69278;52.220;5.172;2023-10-19T11:22:25;99203.19;;;17.32;87.27
79791;BME280;69278;52.220;5.172;2023-10-19T11:24:53;99216.47;;;17.32;87.41
79791;BME280;69278;52.220;5.172;2023-10-19T11:27:27;99206.19;;;17.35;87.05
79791;BME280;69278;52.220;5.172;2023-10-19T11:29:59;99202.66;;;17.41;87.11
79791;BME280;69278;52.220;5.172;2023-10-19T11:32:25;99200.00;;;17.41;87.33
79791;BME280;69278;52.220;5.172;2023-10-19T11:34:55;99207.69;;;17.49;87.23
79791;BME280;69278;52.220;5.172;2023-10-19T11:37:23;99214.25;;;17.47;86.75
79791;BME280;69278;52.220;5.172;2023-10-19T11:39:49;99195.56;;;17.35;86.97
79791;BME280;69278;52.220;5.172;2023-10-19T11:42:17;99213.91;;;17.43;86.72
79791;BME280;69278;52.220;5.172;2023-10-19T11:44:47;99175.00;;;17.24;87.32
79791;BME280;69278;52.220;5.172;2023-10-19T11:47:13;99211.00;;;17.45;87.36
79791;BME280;69278;52.220;5.172;2023-10-19T11:49:41;99199.34;;;17.46;86.70
79791;BME280;69278;52.220;5.172;2023-10-19T11:52:08;99192.75;;;17.48;87.39
79791;BME280;69278;52.220;5.172;2023-10-19T11:54:35;99195.63;;;17.53;87.08
79791;BME280;69278;52.220;5.172;2023-10-19T11:57:05;99182.47;;;17.58;86.96
79791;BME280;69278;52.220;5.172;2023-10-19T11:59:31;99181.56;;;17.64;86.75
79791;BME280;69278;52.220;5.172;2023-10-19T12:01:58;99147.53;;;17.48;86.42
79791;BME280;69278;52.220;5.172;2023-10-19T12:04:27;99162.34;;;17.62;86.84
79791;BME280;69278;52.220;5.172;2023-10-19T12:06:54;99168.63;;;17.68;86.24
79791;BME280;69278;52.220;5.172;2023-10-19T12:09:22;99178.97;;;17.76;86.41
79791;BME280;69278;52.220;5.172;2023-10-19T12:11:51;99183.63;;;17.80;86.29
79791;BME280;69278;52.220;5.172;2023-10-19T12:14:20;99181.56;;;17.82;86.30
79791;BME280;69278;52.220;5.172;2023-10-19T12:16:47;99174.50;;;17.88;86.19
79791;BME280;69278;52.220;5.172;2023-10-19T12:19:14;99170.00;;;17.88;85.71
79791;BME280;69278;52.220;5.172;2023-10-19T12:21:45;99168.25;;;17.82;85.05
79791;BME280;69278;52.220;5.172;2023-10-19T12:24:11;99172.66;;;17.88;85.23
79791;BME280;69278;52.220;5.172;2023-10-19T12:26:38;99167.19;;;17.83;85.41
79791;BME280;69278;52.220;5.172;2023-10-19T12:29:05;99154.41;;;17.74;85.17
79791;BME280;69278;52.220;5.172;2023-10-19T12:31:35;99161.72;;;17.78;84.97
79791;BME280;69278;52.220;5.172;2023-10-19T12:34:05;99162.97;;;17.76;85.23
79791;BME280;69278;52.220;5.172;2023-10-19T12:36:34;99158.13;;;17.73;84.76
79791;BME280;69278;52.220;5.172;2023-10-19T12:39:01;99152.84;;;17.66;84.50
79791;BME280;69278;52.220;5.172;2023-10-19T12:41:28;99153.81;;;17.72;84.18
79791;BME280;69278;52.220;5.172;2023-10-19T12:43:55;99153.00;;;17.71;84.77
79791;BME280;69278;52.220;5.172;2023-10-19T12:46:26;99142.34;;;17.71;85.11
79791;BME280;69278;52.220;5.172;2023-10-19T12:48:56;99148.94;;;17.69;85.58
79791;BME280;69278;52.220;5.172;2023-10-19T12:51:24;99142.44;;;17.65;85.86
79791;BME280;69278;52.220;5.172;2023-10-19T12:53:52;99138.59;;;17.61;86.25
79791;BME280;69278;52.220;5.172;2023-10-19T12:56:19;99138.00;;;17.59;86.53
79791;BME280;69278;52.220;5.172;2023-10-19T12:58:46;99134.75;;;17.57;86.75
79791;BME280;69278;52.220;5.172;2023-10-19T13:01:14;99112.78;;;17.43;86.95
79791;BME280;69278;52.220;5.172;2023-10-19T13:03:47;99125.19;;;17.49;87.21
79791;BME280;69278;52.220;5.172;2023-10-19T13:06:14;99129.56;;;17.44;87.23
79791;BME280;69278;52.220;5.172;2023-10-19T13:08:42;99128.34;;;17.40;87.28
79791;BME280;69278;52.220;5.172;2023-10-19T13:11:09;99133.25;;;17.43;87.52
79791;BME280;69278;52.220;5.172;2023-10-19T13:13:43;99133.47;;;17.41;87.70
79791;BME280;69278;52.220;5.172;2023-10-19T13:16:10;99126.94;;;17.37;87.76
79791;BME280;69278;52.220;5.172;2023-10-19T13:18:36;99121.88;;;17.36;87.92
79791;BME280;69278;52.220;5.172;2023-10-19T13:21:03;99127.78;;;17.38;88.17
79791;BME280;69278;52.220;5.172;2023-10-19T13:23:35;99132.50;;;17.36;88.46
79791;BME280;69278;52.220;5.172;2023-10-19T13:26:02;99132.50;;;17.36;88.42